sensor_id;sensor_type;location;lat;lon;timestamp;temperature;humidity
62991;DHT22;49084;48.204;16.202;2023-01-15T00:01:48;4.10;99.90
62991;DHT22;49084;48.204;16.202;2023-01-15T00:04:14;4.10;99.90
62991;DHT22;49084;48.204;16.202;2023-01-15T00:06:41;4.20;99.90
62991;DHT22;49084;48.204;16.202;2023-01-15T00:09:10;4.30;99.90
62991;DHT22;49084;48.204;16.202;2023-01-15T00:11:37;4.30;99.90
62991;DHT22;49084;48.204;16.202;2023-01-15T00:14:03;4.40;99.90
62991;DHT22;49084;48.204;16.202;2023-01-15T00:16:29;4.40;99.90
62991;DHT22;49084;48.204;16.202;2023-01-15T00:18:59;4.40;99.90
62991;DHT22;49084;48.204;16.202;2023-01-15T00:21:26;4.50;99.90
62991;DHT22;49084;48.204;16.202;2023-01-15T00:23:53;4.50;99.90
62991;DHT22;49084;48.204;16.202;2023-01-15T00:26:38;4.60;99.90
62991;DHT22;49084;48.204;16.202;2023-01-15T00:29:23;4.50;99.90
62991;DHT22;49084;48.204;16.202;2023-01-15T00:32:03;4.50;99.90
62991;DHT22;49084;48.204;16.202;2023-01-15T00:34:30;4.60;99.90
62991;DHT22;49084;48.204;16.202;2023-01-15T00:36:57;4.60;99.90
62991;DHT22;49084;48.204;16.202;2023-01-15T00:39:23;4.60;99.90
62991;DHT22;49084;48.204;16.202;2023-01-15T00:41:49;4.70;99.90
62991;DHT22;49084;48.204;16.202;2023-01-15T00:44:15;4.70;99.90
62991;DHT22;49084;48.204;16.202;2023-01-15T00:46:41;4.70;99.90
62991;DHT22;49084;48.204;16.202;2023-01-15T00:49:08;4.70;99.90
62991;DHT22;49084;48.204;16.202;2023-01-15T00:51:33;4.80;99.90
62991;DHT22;49084;48.204;16.202;2023-01-15T00:53:59;4.90;99.90
62991;DHT22;49084;48.204;16.202;2023-01-15T00:56:25;4.90;99.90
62991;DHT22;49084;48.204;16.202;2023-01-15T00:58:51;4.80;99.90
62991;DHT22;49084;48.204;16.202;2023-01-15T01:01:17;4.80;99.90
62991;DHT22;49084;48.204;16.202;2023-01-15T01:03:42;4.80;99.90
62991;DHT22;49084;48.204;16.202;2023-01-15T01:06:13;4.80;99.90
62991;DHT22;49084;48.204;16.202;2023-01-15T01:08:40;4.90;99.90
62991;DHT22;49084;48.204;16.202;2023-01-15T01:11:09;4.90;99.90
62991;DHT22;49084;48.204;16.202;2023-01-15T01:13:36;5.00;99.90
62991;DHT22;49084;48.204;16.202;2023-01-15T01:16:02;5.00;99.90
62991;DHT22;49084;48.204;16.202;2023-01-15T01:18:28;5.00;99.90
62991;DHT22;49084;48.204;16.202;2023-01-15T01:20:54;5.00;99.90
62991;DHT22;49084;48.204;16.202;2023-01-15T01:23:22;5.00;99.90
62991;DHT22;49084;48.204;16.202;2023-01-15T01:25:47;5.00;99.90
62991;DHT22;49084;48.204;16.202;2023-01-15T01:28:13;4.90;99.90
62991;DHT22;49084;48.204;16.202;2023-01-15T01:30:39;5.00;99.90
62991;DHT22;49084;48.204;16.202;2023-01-15T01:33:06;5.00;99.90
62991;DHT22;49084;48.204;16.202;2023-01-15T01:35:32;5.00;99.90
62991;DHT22;49084;48.204;16.202;2023-01-15T01:37:57;5.00;99.90
62991;DHT22;49084;48.204;16.202;2023-01-15T01:40:23;5.00;99.90
62991;DHT22;49084;48.204;16.202;2023-01-15T01:42:49;5.00;99.90
62991;DHT22;49084;48.204;16.202;2023-01-15T01:45:32;5.00;99.90
62991;DHT22;49084;48.204;16.202;2023-01-15T01:48:05;5.00;99.90
62991;DHT22;49084;48.204;16.202;2023-01-15T01:50:33;5.00;99.90
62991;DHT22;49084;48.204;16.202;2023-01-15T01:53:03;4.90;99.90
62991;DHT22;49084;48.204;16.202;2023-01-15T01:55:29;4.90;99.90
62991;DHT22;49084;48.204;16.202;2023-01-15T01:57:59;4.80;99.90
62991;DHT22;49084;48.204;16.202;2023-01-15T02:00:27;4.90;99.90
62991;DHT22;49084;48.204;16.202;2023-01-15T02:02:53;4.80;99.90
62991;DHT22;49084;48.204;16.202;2023-01-15T02:05:33;4.80;99.90
62991;DHT22;49084;48.204;16.202;2023-01-15T02:08:00;4.80;99.90
62991;DHT22;49084;48.204;16.202;2023-01-15T02:10:26;4.80;99.90
62991;DHT22;49084;48.204;16.202;2023-01-15T02:15:50;4.80;99.90
62991;DHT22;49084;48.204;16.202;2023-01-15T02:18:30;4.90;99.90
62991;DHT22;49084;48.204;16.202;2023-01-15T02:23:52;4.90;99.90
62991;DHT22;49084;48.204;16.202;2023-01-15T02:29:22;5.00;99.90
62991;DHT22;49084;48.204;16.202;2023-01-15T02:31:51;5.00;99.90
62991;DHT22;49084;48.204;16.202;2023-01-15T02:34:24;5.10;99.90
62991;DHT22;49084;48.204;16.202;2023-01-15T02:37:00;5.10;99.90
62991;DHT22;49084;48.204;16.202;2023-01-15T02:39:27;5.10;99.90
62991;DHT22;49084;48.204;16.202;2023-01-15T02:41:57;5.10;99.90
62991;DHT22;49084;48.204;16.202;2023-01-15T02:44:24;5.10;99.90
62991;DHT22;49084;48.204;16.202;2023-01-15T02:46:51;5.20;99.90
62991;DHT22;49084;48.204;16.202;2023-01-15T02:49:19;5.10;99.90
62991;DHT22;49084;48.204;16.202;2023-01-15T02:52:12;5.20;99.90
62991;DHT22;49084;48.204;16.202;2023-01-15T02:54:43;5.20;99.90
62991;DHT22;49084;48.204;16.202;2023-01-15T02:57:11;5.20;99.90
62991;DHT22;49084;48.204;16.202;2023-01-15T02:59:41;5.20;99.90
62991;DHT22;49084;48.204;16.202;2023-01-15T03:02:14;5.20;99.90
62991;DHT22;49084;48.204;16.202;2023-01-15T03:04:46;5.20;99.90
62991;DHT22;49084;48.204;16.202;2023-01-15T03:07:35;5.20;99.90
62991;DHT22;49084;48.204;16.202;2023-01-15T03:10:02;5.20;99.90
62991;DHT22;49084;48.204;16.202;2023-01-15T03:15:42;5.10;99.90
62991;DHT22;49084;48.204;16.202;2023-01-15T03:18:35;5.10;99.90
62991;DHT22;49084;48.204;16.202;2023-01-15T03:21:04;5.10;99.90
62991;DHT22;49084;48.204;16.202;2023-01-15T03:23:35;5.20;99.90
62991;DHT22;49084;48.204;16.202;2023-01-15T03:26:02;5.20;99.90
62991;DHT22;49084;48.204;16.202;2023-01-15T03:28:30;5.20;99.90
62991;DHT22;49084;48.204;16.202;2023-01-15T03:30:58;5.20;99.90
62991;DHT22;49084;48.204;16.202;2023-01-15T03:33:24;5.20;99.90
62991;DHT22;49084;48.204;16.202;2023-01-15T03:35:57;5.20;99.90
62991;DHT22;49084;48.204;16.202;2023-01-15T03:38:41;5.20;99.90
62991;DHT22;49084;48.204;16.202;2023-01-15T03:41:23;5.20;99.90
62991;DHT22;49084;48.204;16.202;2023-01-15T03:51:55;5.20;99.90
62991;DHT22;49084;48.204;16.202;2023-01-15T03:54:33;5.10;99.90
62991;DHT22;49084;48.204;16.202;2023-01-15T03:57:07;5.00;99.90
62991;DHT22;49084;48.204;16.202;2023-01-15T03:59:39;4.90;99.90
62991;DHT22;49084;48.204;16.202;2023-01-15T04:02:08;4.80;99.90
62991;DHT22;49084;48.204;16.202;2023-01-15T04:04:36;4.80;99.90
62991;DHT22;49084;48.204;16.202;2023-01-15T04:07:03;4.80;99.90
62991;DHT22;49084;48.204;16.202;2023-01-15T04:09:29;4.70;99.90
62991;DHT22;49084;48.204;16.202;2023-01-15T04:11:59;4.70;99.90
62991;DHT22;49084;48.204;16.202;2023-01-15T04:14:26;4.60;99.90
62991;DHT22;49084;48.204;16.202;2023-01-15T04:19:38;4.60;99.90
62991;DHT22;49084;48.204;16.202;2023-01-15T04:22:04;4.50;99.90
62991;DHT22;49084;48.204;16.202;2023-01-15T04:24:29;4.50;99.90
62991;DHT22;49084;48.204;16.202;2023-01-15T04:26:55;4.50;99.90
62991;DHT22;49084;48.204;16.202;2023-01-15T04:29:21;4.40;99.90
62991;DHT22;49084;48.204;16.202;2023-01-15T04:31:46;4.40;99.90
62991;DHT22;49084;48.204;16.202;2023-01-15T04:34:12;4.50;99.90
62991;DHT22;49084;48.204;16.202;2023-01-15T04:36:38;4.50;99.90
62991;DHT22;49084;48.204;16.202;2023-01-15T04:39:04;4.50;99.90
62991;DHT22;49084;48.204;16.202;2023-01-15T04:41:30;4.50;99.90
62991;DHT22;49084;48.204;16.202;2023-01-15T04:44:14;4.50;99.90
62991;DHT22;49084;48.204;16.202;2023-01-15T04:46:42;4.50;99.90
62991;DHT22;49084;48.204;16.202;2023-01-15T04:49:15;4.60;99.90
62991;DHT22;49084;48.204;16.202;2023-01-15T04:51:41;4.60;99.90
62991;DHT22;49084;48.204;16.202;2023-01-15T04:54:08;4.70;99.90
62991;DHT22;49084;48.204;16.202;2023-01-15T04:56:43;4.70;99.90
62991;DHT22;49084;48.204;16.202;2023-01-15T04:59:09;4.80;99.90
62991;DHT22;49084;48.204;16.202;2023-01-15T05:01:35;4.80;99.90
62991;DHT22;49084;48.204;16.202;2023-01-15T05:04:01;4.80;99.90
62991;DHT22;49084;48.204;16.202;2023-01-15T05:06:28;4.90;99.90
62991;DHT22;49084;48.204;16.202;2023-01-15T05:08:56;4.90;99.90
62991;DHT22;49084;48.204;16.202;2023-01-15T05:11:22;4.90;99.90
62991;DHT22;49084;48.204;16.202;2023-01-15T05:13:48;5.00;99.90
62991;DHT22;49084;48.204;16.202;2023-01-15T05:16:16;5.00;99.90
62991;DHT22;49084;48.204;16.202;2023-01-15T05:18:43;5.00;99.90
62991;DHT22;49084;48.204;16.202;2023-01-15T05:21:18;5.10;99.90
62991;DHT22;49084;48.204;16.202;2023-01-15T05:23:45;5.10;99.90
62991;DHT22;49084;48.204;16.202;2023-01-15T05:26:10;5.10;99.90
62991;DHT22;49084;48.204;16.202;2023-01-15T05:28:36;5.10;99.90
62991;DHT22;49084;48.204;16.202;2023-01-15T05:31:13;5.20;99.90
62991;DHT22;49084;48.204;16.202;2023-01-15T05:33:39;5.20;99.90
62991;DHT22;49084;48.204;16.202;2023-01-15T05:36:08;5.20;99.90
62991;DHT22;49084;48.204;16.202;2023-01-15T05:38:33;5.20;99.90
62991;DHT22;49084;48.204;16.202;2023-01-15T05:41:12;5.20;99.90
62991;DHT22;49084;48.204;16.202;2023-01-15T05:44:00;5.30;99.90
62991;DHT22;49084;48.204;16.202;2023-01-15T05:46:27;5.30;99.90
62991;DHT22;49084;48.204;16.202;2023-01-15T05:48:53;5.30;99.90
62991;DHT22;49084;48.204;16.202;2023-01-15T05:51:18;5.30;99.90
62991;DHT22;49084;48.204;16.202;2023-01-15T05:53:44;5.30;99.90
62991;DHT22;49084;48.204;16.202;2023-01-15T05:56:10;5.30;99.90
62991;DHT22;49084;48.204;16.202;2023-01-15T05:58:36;5.30;99.90
62991;DHT22;49084;48.204;16.202;2023-01-15T06:01:09;5.30;99.90
62991;DHT22;49084;48.204;16.202;2023-01-15T06:03:35;5.30;99.90
62991;DHT22;49084;48.204;16.202;2023-01-15T06:06:02;5.30;99.90
62991;DHT22;49084;48.204;16.202;2023-01-15T06:08:28;5.30;99.90
62991;DHT22;49084;48.204;16.202;2023-01-15T06:10:54;5.30;99.90
62991;DHT22;49084;48.204;16.202;2023-01-15T06:13:19;5.30;99.90
62991;DHT22;49084;48.204;16.202;2023-01-15T06:15:45;5.20;99.90
62991;DHT22;49084;48.204;16.202;2023-01-15T06:18:11;5.30;99.90
62991;DHT22;49084;48.204;16.202;2023-01-15T06:20:38;5.20;99.90
62991;DHT22;49084;48.204;16.202;2023-01-15T06:23:04;5.20;99.90
62991;DHT22;49084;48.204;16.202;2023-01-15T06:25:32;5.20;99.90
62991;DHT22;49084;48.204;16.202;2023-01-15T06:27:59;5.20;99.90
62991;DHT22;49084;48.204;16.202;2023-01-15T06:30:25;5.20;99.90
62991;DHT22;49084;48.204;16.202;2023-01-15T06:32:51;5.20;99.90
62991;DHT22;49084;48.204;16.202;2023-01-15T06:35:16;5.20;99.90
62991;DHT22;49084;48.204;16.202;2023-01-15T06:37:42;5.20;99.90
62991;DHT22;49084;48.204;16.202;2023-01-15T06:40:08;5.20;99.90
62991;DHT22;49084;48.204;16.202;2023-01-15T06:42:34;5.30;99.90
62991;DHT22;49084;48.204;16.202;2023-01-15T06:45:18;5.20;99.90
62991;DHT22;49084;48.204;16.202;2023-01-15T06:48:02;5.20;99.90
62991;DHT22;49084;48.204;16.202;2023-01-15T06:50:28;5.20;99.90
62991;DHT22;49084;48.204;16.202;2023-01-15T06:52:54;5.20;99.90
62991;DHT22;49084;48.204;16.202;2023-01-15T06:55:19;5.30;99.90
62991;DHT22;49084;48.204;16.202;2023-01-15T06:57:47;5.30;99.90
62991;DHT22;49084;48.204;16.202;2023-01-15T07:00:13;5.20;99.90
62991;DHT22;49084;48.204;16.202;2023-01-15T07:02:39;5.20;99.90
62991;DHT22;49084;48.204;16.202;2023-01-15T07:05:06;5.20;99.90
62991;DHT22;49084;48.204;16.202;2023-01-15T07:07:32;5.20;99.90
62991;DHT22;49084;48.204;16.202;2023-01-15T07:09:58;5.10;99.90
62991;DHT22;49084;48.204;16.202;2023-01-15T07:12:24;5.10;99.90
62991;DHT22;49084;48.204;16.202;2023-01-15T07:14:50;5.00;99.90
62991;DHT22;49084;48.204;16.202;2023-01-15T07:17:16;5.00;99.90
62991;DHT22;49084;48.204;16.202;2023-01-15T07:19:41;5.00;99.90
62991;DHT22;49084;48.204;16.202;2023-01-15T07:22:09;5.00;99.90
62991;DHT22;49084;48.204;16.202;2023-01-15T07:24:34;5.00;99.90
62991;DHT22;49084;48.204;16.202;2023-01-15T07:27:00;5.00;99.90
62991;DHT22;49084;48.204;16.202;2023-01-15T07:29:26;4.90;99.90
62991;DHT22;49084;48.204;16.202;2023-01-15T07:31:52;4.90;99.90
62991;DHT22;49084;48.204;16.202;2023-01-15T07:34:18;4.90;99.90
62991;DHT22;49084;48.204;16.202;2023-01-15T07:36:44;4.90;99.90
62991;DHT22;49084;48.204;16.202;2023-01-15T07:39:10;4.90;99.90
62991;DHT22;49084;48.204;16.202;2023-01-15T07:41:36;4.80;99.90
62991;DHT22;49084;48.204;16.202;2023-01-15T07:44:21;4.90;99.90
62991;DHT22;49084;48.204;16.202;2023-01-15T07:47:21;4.90;99.90
62991;DHT22;49084;48.204;16.202;2023-01-15T07:50:20;4.90;99.90
62991;DHT22;49084;48.204;16.202;2023-01-15T07:52:46;4.90;99.90
62991;DHT22;49084;48.204;16.202;2023-01-15T07:55:12;4.80;99.90
62991;DHT22;49084;48.204;16.202;2023-01-15T07:57:41;4.80;99.90
62991;DHT22;49084;48.204;16.202;2023-01-15T08:00:08;4.80;99.90
62991;DHT22;49084;48.204;16.202;2023-01-15T08:02:35;4.80;99.90
62991;DHT22;49084;48.204;16.202;2023-01-15T08:05:00;4.80;99.90
62991;DHT22;49084;48.204;16.202;2023-01-15T08:07:26;4.80;99.90
62991;DHT22;49084;48.204;16.202;2023-01-15T08:09:52;4.80;99.90
62991;DHT22;49084;48.204;16.202;2023-01-15T08:12:17;4.90;99.90
62991;DHT22;49084;48.204;16.202;2023-01-15T08:15:01;4.90;99.90
62991;DHT22;49084;48.204;16.202;2023-01-15T08:17:45;5.00;99.90
62991;DHT22;49084;48.204;16.202;2023-01-15T08:20:14;5.10;99.90
62991;DHT22;49084;48.204;16.202;2023-01-15T08:22:40;5.10;99.90
62991;DHT22;49084;48.204;16.202;2023-01-15T08:25:07;5.10;99.90
62991;DHT22;49084;48.204;16.202;2023-01-15T08:27:33;5.10;99.90
62991;DHT22;49084;48.204;16.202;2023-01-15T08:29:59;5.10;99.90
62991;DHT22;49084;48.204;16.202;2023-01-15T08:32:24;5.20;99.90
62991;DHT22;49084;48.204;16.202;2023-01-15T08:34:50;5.10;99.90
62991;DHT22;49084;48.204;16.202;2023-01-15T08:37:16;5.20;99.90
62991;DHT22;49084;48.204;16.202;2023-01-15T08:39:41;5.20;99.90
62991;DHT22;49084;48.204;16.202;2023-01-15T08:42:07;5.20;99.90
62991;DHT22;49084;48.204;16.202;2023-01-15T08:44:33;5.20;99.90
62991;DHT22;49084;48.204;16.202;2023-01-15T08:46:59;5.30;99.90
62991;DHT22;49084;48.204;16.202;2023-01-15T08:49:24;5.30;99.90
62991;DHT22;49084;48.204;16.202;2023-01-15T08:51:50;5.30;99.90
62991;DHT22;49084;48.204;16.202;2023-01-15T08:54:17;5.30;99.90
62991;DHT22;49084;48.204;16.202;2023-01-15T08:56:43;5.20;99.90
62991;DHT22;49084;48.204;16.202;2023-01-15T08:59:09;5.20;99.90
62991;DHT22;49084;48.204;16.202;2023-01-15T09:01:35;5.20;99.90
62991;DHT22;49084;48.204;16.202;2023-01-15T09:04:01;5.20;99.90
62991;DHT22;49084;48.204;16.202;2023-01-15T09:06:28;5.20;99.90
62991;DHT22;49084;48.204;16.202;2023-01-15T09:08:53;5.20;99.90
62991;DHT22;49084;48.204;16.202;2023-01-15T09:11:19;5.20;99.90
62991;DHT22;49084;48.204;16.202;2023-01-15T09:13:45;5.20;99.90
62991;DHT22;49084;48.204;16.202;2023-01-15T09:16:12;5.30;99.90
62991;DHT22;49084;48.204;16.202;2023-01-15T09:18:38;5.30;99.90
62991;DHT22;49084;48.204;16.202;2023-01-15T09:21:05;5.30;99.90
62991;DHT22;49084;48.204;16.202;2023-01-15T09:23:31;5.20;99.90
62991;DHT22;49084;48.204;16.202;2023-01-15T09:26:02;5.20;99.90
62991;DHT22;49084;48.204;16.202;2023-01-15T09:28:31;5.20;99.90
62991;DHT22;49084;48.204;16.202;2023-01-15T09:30:56;5.20;99.90
62991;DHT22;49084;48.204;16.202;2023-01-15T09:33:22;5.30;99.90
62991;DHT22;49084;48.204;16.202;2023-01-15T09:35:48;5.30;99.90
62991;DHT22;49084;48.204;16.202;2023-01-15T09:38:16;5.30;99.90
62991;DHT22;49084;48.204;16.202;2023-01-15T09:40:52;5.30;99.90
62991;DHT22;49084;48.204;16.202;2023-01-15T09:52:04;5.30;99.90
62991;DHT22;49084;48.204;16.202;2023-01-15T09:57:17;5.40;99.90
62991;DHT22;49084;48.204;16.202;2023-01-15T09:59:45;5.30;99.90
62991;DHT22;49084;48.204;16.202;2023-01-15T10:02:26;5.30;99.90
62991;DHT22;49084;48.204;16.202;2023-01-15T10:04:57;5.30;99.90
62991;DHT22;49084;48.204;16.202;2023-01-15T10:07:35;5.30;99.90
62991;DHT22;49084;48.204;16.202;2023-01-15T10:10:08;5.30;99.90
62991;DHT22;49084;48.204;16.202;2023-01-15T10:12:35;5.30;99.90
62991;DHT22;49084;48.204;16.202;2023-01-15T10:15:15;5.40;99.90
62991;DHT22;49084;48.204;16.202;2023-01-15T10:17:49;5.40;99.90
62991;DHT22;49084;48.204;16.202;2023-01-15T10:23:31;5.50;99.90
62991;DHT22;49084;48.204;16.202;2023-01-15T10:26:04;5.60;99.90
62991;DHT22;49084;48.204;16.202;2023-01-15T10:31:53;5.70;99.90
62991;DHT22;49084;48.204;16.202;2023-01-15T10:37:04;5.80;99.90
62991;DHT22;49084;48.204;16.202;2023-01-15T10:47:37;6.00;99.90
62991;DHT22;49084;48.204;16.202;2023-01-15T10:50:25;6.00;99.90
62991;DHT22;49084;48.204;16.202;2023-01-15T10:55:49;6.00;99.90
62991;DHT22;49084;48.204;16.202;2023-01-15T10:58:25;5.90;99.90
62991;DHT22;49084;48.204;16.202;2023-01-15T11:01:02;5.80;99.90
62991;DHT22;49084;48.204;16.202;2023-01-15T11:03:48;5.60;99.90
62991;DHT22;49084;48.204;16.202;2023-01-15T11:06:17;5.50;99.90
62991;DHT22;49084;48.204;16.202;2023-01-15T11:08:54;5.30;99.90
62991;DHT22;49084;48.204;16.202;2023-01-15T11:11:32;5.30;99.90
62991;DHT22;49084;48.204;16.202;2023-01-15T11:14:18;5.20;99.90
62991;DHT22;49084;48.204;16.202;2023-01-15T11:17:02;5.20;99.90
62991;DHT22;49084;48.204;16.202;2023-01-15T11:19:36;5.20;99.90
62991;DHT22;49084;48.204;16.202;2023-01-15T11:22:15;5.20;99.90
62991;DHT22;49084;48.204;16.202;2023-01-15T11:24:53;5.30;99.90
62991;DHT22;49084;48.204;16.202;2023-01-15T11:27:23;5.20;99.90
62991;DHT22;49084;48.204;16.202;2023-01-15T11:29:58;5.30;99.90
62991;DHT22;49084;48.204;16.202;2023-01-15T11:32:35;5.30;99.90
62991;DHT22;49084;48.204;16.202;2023-01-15T11:37:33;5.40;99.90
62991;DHT22;49084;48.204;16.202;2023-01-15T11:40:00;5.40;99.90
62991;DHT22;49084;48.204;16.202;2023-01-15T11:42:36;5.40;99.90
62991;DHT22;49084;48.204;16.202;2023-01-15T11:45:28;5.40;99.90
62991;DHT22;49084;48.204;16.202;2023-01-15T11:48:16;5.40;99.90
62991;DHT22;49084;48.204;16.202;2023-01-15T11:51:12;5.40;99.90
62991;DHT22;49084;48.204;16.202;2023-01-15T11:53:53;5.40;99.90
62991;DHT22;49084;48.204;16.202;2023-01-15T11:56:23;5.30;99.90
62991;DHT22;49084;48.204;16.202;2023-01-15T11:58:55;5.30;99.90
62991;DHT22;49084;48.204;16.202;2023-01-15T12:01:34;5.20;99.90
62991;DHT22;49084;48.204;16.202;2023-01-15T12:04:17;5.30;99.90
62991;DHT22;49084;48.204;16.202;2023-01-15T12:06:47;5.30;99.90
62991;DHT22;49084;48.204;16.202;2023-01-15T12:09:26;5.20;99.90
62991;DHT22;49084;48.204;16.202;2023-01-15T12:25:37;5.00;99.90
62991;DHT22;49084;48.204;16.202;2023-01-15T12:41:37;5.00;99.90
62991;DHT22;49084;48.204;16.202;2023-01-15T12:47:21;5.10;99.90
62991;DHT22;49084;48.204;16.202;2023-01-15T12:49:54;5.10;99.90
62991;DHT22;49084;48.204;16.202;2023-01-15T12:52:26;5.10;99.90
62991;DHT22;49084;48.204;16.202;2023-01-15T12:57:43;5.10;99.90
62991;DHT22;49084;48.204;16.202;2023-01-15T13:05:40;5.00;99.90
62991;DHT22;49084;48.204;16.202;2023-01-15T13:11:15;5.00;99.90
62991;DHT22;49084;48.204;16.202;2023-01-15T13:13:41;5.00;99.90
62991;DHT22;49084;48.204;16.202;2023-01-15T13:19:32;5.00;99.90
62991;DHT22;49084;48.204;16.202;2023-01-15T13:21:51;5.00;99.90
62991;DHT22;49084;48.204;16.202;2023-01-15T13:33:09;5.10;99.90
62991;DHT22;49084;48.204;16.202;2023-01-15T13:35:59;5.10;99.90
62991;DHT22;49084;48.204;16.202;2023-01-15T13:38:28;5.10;99.90
62991;DHT22;49084;48.204;16.202;2023-01-15T13:40:56;5.10;99.90
62991;DHT22;49084;48.204;16.202;2023-01-15T13:43:41;5.10;99.90
62991;DHT22;49084;48.204;16.202;2023-01-15T13:46:18;5.10;99.90
62991;DHT22;49084;48.204;16.202;2023-01-15T13:48:47;5.10;99.90
62991;DHT22;49084;48.204;16.202;2023-01-15T13:51:32;5.10;99.90
62991;DHT22;49084;48.204;16.202;2023-01-15T13:54:12;5.10;99.90
62991;DHT22;49084;48.204;16.202;2023-01-15T13:56:40;5.20;99.90
62991;DHT22;49084;48.204;16.202;2023-01-15T14:02:00;5.20;99.90
62991;DHT22;49084;48.204;16.202;2023-01-15T14:04:36;5.20;99.90
62991;DHT22;49084;48.204;16.202;2023-01-15T14:07:03;5.20;99.90
62991;DHT22;49084;48.204;16.202;2023-01-15T14:09:29;5.20;99.90
62991;DHT22;49084;48.204;16.202;2023-01-15T14:15:00;5.20;99.90
62991;DHT22;49084;48.204;16.202;2023-01-15T14:18:32;5.20;99.90
62991;DHT22;49084;48.204;16.202;2023-01-15T14:31:58;5.30;99.90
62991;DHT22;49084;48.204;16.202;2023-01-15T14:34:28;5.30;99.90
62991;DHT22;49084;48.204;16.202;2023-01-15T14:36:56;5.30;99.90
62991;DHT22;49084;48.204;16.202;2023-01-15T14:39:28;5.30;99.90
62991;DHT22;49084;48.204;16.202;2023-01-15T14:42:09;5.30;99.90
62991;DHT22;49084;48.204;16.202;2023-01-15T14:47:32;5.30;99.90
62991;DHT22;49084;48.204;16.202;2023-01-15T14:50:02;5.30;99.90
62991;DHT22;49084;48.204;16.202;2023-01-15T14:52:28;5.30;99.90
62991;DHT22;49084;48.204;16.202;2023-01-15T14:54:54;5.30;99.90
62991;DHT22;49084;48.204;16.202;2023-01-15T14:57:21;5.30;99.90
62991;DHT22;49084;48.204;16.202;2023-01-15T14:59:56;5.30;99.90
62991;DHT22;49084;48.204;16.202;2023-01-15T15:02:33;5.30;99.90
62991;DHT22;49084;48.204;16.202;2023-01-15T15:05:01;5.30;99.90
62991;DHT22;49084;48.204;16.202;2023-01-15T15:07:35;5.30;99.90
62991;DHT22;49084;48.204;16.202;2023-01-15T15:10:04;5.30;99.90
62991;DHT22;49084;48.204;16.202;2023-01-15T15:13:01;5.30;99.90
62991;DHT22;49084;48.204;16.202;2023-01-15T15:15:49;5.40;99.90
62991;DHT22;49084;48.204;16.202;2023-01-15T15:18:41;5.40;99.90
62991;DHT22;49084;48.204;16.202;2023-01-15T15:21:22;5.30;99.90
62991;DHT22;49084;48.204;16.202;2023-01-15T15:24:02;5.30;99.90
62991;DHT22;49084;48.204;16.202;2023-01-15T15:26:31;5.30;99.90
62991;DHT22;49084;48.204;16.202;2023-01-15T15:29:16;5.30;99.90
62991;DHT22;49084;48.204;16.202;2023-01-15T15:31:52;5.30;99.90
62991;DHT22;49084;48.204;16.202;2023-01-15T15:34:30;5.30;99.90
62991;DHT22;49084;48.204;16.202;2023-01-15T15:36:59;5.30;99.90
62991;DHT22;49084;48.204;16.202;2023-01-15T15:39:40;5.30;99.90
62991;DHT22;49084;48.204;16.202;2023-01-15T15:42:34;5.30;99.90
62991;DHT22;49084;48.204;16.202;2023-01-15T15:45:27;5.30;99.90
62991;DHT22;49084;48.204;16.202;2023-01-15T15:48:32;5.40;99.90
62991;DHT22;49084;48.204;16.202;2023-01-15T15:51:34;5.70;99.90
62991;DHT22;49084;48.204;16.202;2023-01-15T15:54:19;5.90;99.90
62991;DHT22;49084;48.204;16.202;2023-01-15T15:59:25;6.20;99.90
62991;DHT22;49084;48.204;16.202;2023-01-15T16:01:52;6.30;99.90
62991;DHT22;49084;48.204;16.202;2023-01-15T16:04:19;6.40;99.90
62991;DHT22;49084;48.204;16.202;2023-01-15T16:06:45;6.50;99.90
62991;DHT22;49084;48.204;16.202;2023-01-15T16:09:12;6.50;99.90
62991;DHT22;49084;48.204;16.202;2023-01-15T16:11:39;6.60;99.90
62991;DHT22;49084;48.204;16.202;2023-01-15T16:14:09;6.70;99.90
62991;DHT22;49084;48.204;16.202;2023-01-15T16:16:37;6.70;99.90
62991;DHT22;49084;48.204;16.202;2023-01-15T16:19:03;6.90;99.90
62991;DHT22;49084;48.204;16.202;2023-01-15T16:21:39;6.90;99.90
62991;DHT22;49084;48.204;16.202;2023-01-15T16:24:08;6.90;99.90
62991;DHT22;49084;48.204;16.202;2023-01-15T16:26:43;6.90;99.90
62991;DHT22;49084;48.204;16.202;2023-01-15T16:29:18;6.90;99.90
62991;DHT22;49084;48.204;16.202;2023-01-15T16:31:44;6.90;99.90
62991;DHT22;49084;48.204;16.202;2023-01-15T16:34:19;6.90;99.90
62991;DHT22;49084;48.204;16.202;2023-01-15T16:36:47;6.80;99.90
62991;DHT22;49084;48.204;16.202;2023-01-15T16:39:23;6.90;99.90
62991;DHT22;49084;48.204;16.202;2023-01-15T16:41:55;6.90;99.90
62991;DHT22;49084;48.204;16.202;2023-01-15T16:44:36;6.90;99.90
62991;DHT22;49084;48.204;16.202;2023-01-15T16:47:05;6.90;99.90
62991;DHT22;49084;48.204;16.202;2023-01-15T16:49:32;6.90;99.90
62991;DHT22;49084;48.204;16.202;2023-01-15T16:52:00;6.90;99.90
62991;DHT22;49084;48.204;16.202;2023-01-15T16:54:41;6.90;99.90
62991;DHT22;49084;48.204;16.202;2023-01-15T16:57:29;7.00;99.90
62991;DHT22;49084;48.204;16.202;2023-01-15T16:59:57;6.90;99.90
62991;DHT22;49084;48.204;16.202;2023-01-15T17:02:24;7.00;99.90
62991;DHT22;49084;48.204;16.202;2023-01-15T17:04:54;6.90;99.90
62991;DHT22;49084;48.204;16.202;2023-01-15T17:09:58;6.90;99.90
62991;DHT22;49084;48.204;16.202;2023-01-15T17:12:33;7.00;99.90
62991;DHT22;49084;48.204;16.202;2023-01-15T17:17:44;6.90;99.90
62991;DHT22;49084;48.204;16.202;2023-01-15T17:20:12;6.90;99.90
62991;DHT22;49084;48.204;16.202;2023-01-15T17:22:40;6.90;99.90
62991;DHT22;49084;48.204;16.202;2023-01-15T17:25:42;6.90;99.90
62991;DHT22;49084;48.204;16.202;2023-01-15T17:28:08;6.90;99.90
62991;DHT22;49084;48.204;16.202;2023-01-15T17:30:37;6.90;99.90
62991;DHT22;49084;48.204;16.202;2023-01-15T17:33:05;6.90;99.90
62991;DHT22;49084;48.204;16.202;2023-01-15T17:35:32;6.90;99.90
62991;DHT22;49084;48.204;16.202;2023-01-15T17:37:59;6.90;99.90
62991;DHT22;49084;48.204;16.202;2023-01-15T17:40:25;6.90;99.90
62991;DHT22;49084;48.204;16.202;2023-01-15T17:42:51;6.80;99.90
62991;DHT22;49084;48.204;16.202;2023-01-15T17:45:26;6.80;99.90
62991;DHT22;49084;48.204;16.202;2023-01-15T17:47:53;6.80;99.90
62991;DHT22;49084;48.204;16.202;2023-01-15T17:50:20;6.80;99.90
62991;DHT22;49084;48.204;16.202;2023-01-15T17:52:46;6.80;99.90
62991;DHT22;49084;48.204;16.202;2023-01-15T17:55:16;6.80;99.90
62991;DHT22;49084;48.204;16.202;2023-01-15T17:58:01;6.80;99.90
62991;DHT22;49084;48.204;16.202;2023-01-15T18:00:46;6.80;99.90
62991;DHT22;49084;48.204;16.202;2023-01-15T18:03:31;6.80;99.90
62991;DHT22;49084;48.204;16.202;2023-01-15T18:06:19;6.80;99.90
62991;DHT22;49084;48.204;16.202;2023-01-15T18:08:54;6.80;99.90
62991;DHT22;49084;48.204;16.202;2023-01-15T18:11:22;6.90;99.90
62991;DHT22;49084;48.204;16.202;2023-01-15T18:13:48;7.10;99.90